Time;durP1;ratioP1;P1;durP2;ratioP2;P2;SDS_P1;SDS_P2;PMS_P1;PMS_P2;Temp;Humidity;BMP_temperature;BMP_pressure;BME280_temperature;BME280_humidity;BME280_pressure;Samples;Min_cycle;Max_cycle;Signal;HPM_P1;HPM_P2
2023/03/10 00:01:35;;;;;;;37.85;19.65;;;;;;;;;;4920468;29;20434;-80
2023/03/10 00:04:01;;;;;;;38.05;19.98;;;;;;;;;;4934953;29;20411;-80
2023/03/10 00:06:28;;;;;;;32.83;19.63;;;;;;;;;;4917895;29;20439;-80
2023/03/10 00:08:55;;;;;;;35.63;18.70;;;;;;;;;;4918771;29;20443;-79
2023/03/10 00:11:21;;;;;;;35.33;19.45;;;;;;;;;;4936466;29;20426;-80
2023/03/10 00:13:47;;;;;;;34.97;18.90;;;;;;;;;;4935496;29;20435;-80
2023/03/10 00:16:18;;;;;;;33.53;19.80;;;;;;;;;;4911245;29;21020;-80
2023/03/10 00:18:45;;;;;;;34.65;19.05;;;;;;;;;;4918128;29;20522;-80
2023/03/10 00:21:15;;;;;;;31.92;19.48;;;;;;;;;;4899364;29;20444;-81
2023/03/10 00:23:41;;;;;;;34.03;18.17;;;;;;;;;;4934348;29;20514;-81
2023/03/10 00:26:09;;;;;;;32.00;19.70;;;;;;;;;;4919265;29;20462;-81
2023/03/10 00:28:35;;;;;;;100.25;24.08;;;;;;;;;;4917470;29;20436;-81
2023/03/10 00:31:03;;;;;;;32.17;18.35;;;;;;;;;;4916602;29;20461;-81
2023/03/10 00:33:30;;;;;;;29.20;17.02;;;;;;;;;;4919415;29;20980;-79
2023/03/10 00:36:07;;;;;;;29.33;17.67;;;;;;;;;;4912241;29;20427;-80
2023/03/10 00:38:34;;;;;;;30.60;18.75;;;;;;;;;;4918240;29;20435;-79
2023/03/10 00:41:00;;;;;;;29.15;17.13;;;;;;;;;;4933321;29;20946;-80
2023/03/10 00:43:27;;;;;;;28.30;17.67;;;;;;;;;;4917683;29;20927;-80
2023/03/10 00:45:53;;;;;;;35.67;18.83;;;;;;;;;;4933840;29;20518;-80
2023/03/10 00:48:19;;;;;;;29.38;17.25;;;;;;;;;;4890659;29;20520;-80
2023/03/10 00:50:45;;;;;;;29.13;16.83;;;;;;;;;;4932871;28;20443;-80
2023/03/10 00:53:11;;;;;;;26.70;17.30;;;;;;;;;;4919137;29;20920;-80
2023/03/10 00:55:37;;;;;;;27.10;17.65;;;;;;;;;;4916420;29;20509;-80
2023/03/10 00:58:03;;;;;;;28.63;17.63;;;;;;;;;;4930941;29;20435;-80
2023/03/10 01:00:29;;;;;;;29.55;16.48;;;;;;;;;;4916082;29;20782;-80
2023/03/10 01:02:55;;;;;;;30.38;17.48;;;;;;;;;;4897656;29;20516;-79
2023/03/10 01:05:21;;;;;;;28.88;16.65;;;;;;;;;;4919579;29;20787;-79
2023/03/10 01:07:50;;;;;;;29.98;17.38;;;;;;;;;;4935849;29;20431;-80
2023/03/10 01:10:17;;;;;;;26.70;16.13;;;;;;;;;;4916912;29;20439;-80
2023/03/10 01:12:43;;;;;;;31.08;18.65;;;;;;;;;;4919022;29;20966;-79
2023/03/10 01:15:10;;;;;;;28.55;17.17;;;;;;;;;;4915250;29;20437;-80
2023/03/10 01:17:36;;;;;;;27.38;16.90;;;;;;;;;;4935236;29;20419;-79
2023/03/10 01:20:05;;;;;;;26.88;16.73;;;;;;;;;;4933222;29;20514;-79
2023/03/10 01:22:33;;;;;;;30.30;16.63;;;;;;;;;;4931936;29;20534;-79
2023/03/10 01:24:59;;;;;;;27.77;16.35;;;;;;;;;;4933551;29;20434;-79
2023/03/10 01:27:25;;;;;;;27.87;16.50;;;;;;;;;;4915707;29;20507;-79
2023/03/10 01:29:51;;;;;;;27.95;17.73;;;;;;;;;;4917660;29;20429;-79
2023/03/10 01:32:18;;;;;;;29.00;16.80;;;;;;;;;;4899941;29;20460;-79
2023/03/10 01:34:44;;;;;;;30.20;17.95;;;;;;;;;;4918629;29;20423;-79
2023/03/10 01:37:10;;;;;;;31.50;17.83;;;;;;;;;;4934797;29;20517;-79
2023/03/10 01:39:36;;;;;;;33.35;18.85;;;;;;;;;;4918597;29;20435;-79
2023/03/10 01:42:02;;;;;;;35.00;20.20;;;;;;;;;;4934662;29;20961;-79
2023/03/10 01:44:28;;;;;;;38.33;21.70;;;;;;;;;;4916609;29;20420;-79
2023/03/10 01:46:55;;;;;;;42.55;23.58;;;;;;;;;;4906504;29;20452;-79
2023/03/10 01:49:39;;;;;;;45.00;24.17;;;;;;;;;;4937793;29;20435;-79
2023/03/10 01:52:05;;;;;;;43.53;24.92;;;;;;;;;;4921392;29;20435;-79
2023/03/10 01:54:54;;;;;;;43.00;23.77;;;;;;;;;;4919684;29;20804;-80
2023/03/10 01:57:24;;;;;;;41.53;22.98;;;;;;;;;;4905845;29;20464;-80
2023/03/10 01:59:50;;;;;;;40.65;22.58;;;;;;;;;;4918735;29;20470;-79
2023/03/10 02:02:17;;;;;;;37.10;22.00;;;;;;;;;;4930758;29;20572;-80
2023/03/10 02:04:44;;;;;;;38.83;23.05;;;;;;;;;;4938564;29;20473;-80
2023/03/10 02:07:11;;;;;;;35.88;22.10;;;;;;;;;;4931725;29;20434;-79
2023/03/10 02:09:40;;;;;;;33.92;20.13;;;;;;;;;;4948601;29;20427;-79
2023/03/10 02:12:07;;;;;;;33.00;20.40;;;;;;;;;;4933240;29;20430;-79
2023/03/10 02:14:34;;;;;;;34.38;20.83;;;;;;;;;;4916224;29;20767;-79
2023/03/10 02:17:01;;;;;;;33.92;20.80;;;;;;;;;;4913782;29;20735;-80
2023/03/10 02:19:34;;;;;;;35.38;21.38;;;;;;;;;;4932242;29;20483;-80
2023/03/10 02:22:11;;;;;;;32.38;19.67;;;;;;;;;;4916249;29;20431;-80
2023/03/10 02:24:52;;;;;;;30.40;20.55;;;;;;;;;;4916961;29;20431;-80
2023/03/10 02:27:18;;;;;;;29.67;18.33;;;;;;;;;;4915250;29;20451;-80
2023/03/10 02:29:50;;;;;;;31.35;19.42;;;;;;;;;;4918709;29;20919;-81
2023/03/10 02:32:17;;;;;;;29.52;17.58;;;;;;;;;;4918026;29;20443;-80
2023/03/10 02:34:43;;;;;;;28.48;18.10;;;;;;;;;;4948074;29;20781;-80
2023/03/10 02:37:18;;;;;;;26.50;16.95;;;;;;;;;;4945966;29;20520;-80
2023/03/10 02:39:44;;;;;;;26.75;16.10;;;;;;;;;;4914003;29;20531;-80
2023/03/10 02:42:11;;;;;;;25.95;15.60;;;;;;;;;;4884474;29;20417;-80
2023/03/10 02:44:37;;;;;;;25.00;15.47;;;;;;;;;;4933314;29;20438;-81
2023/03/10 02:47:04;;;;;;;26.98;14.95;;;;;;;;;;4931119;29;20431;-82
2023/03/10 02:49:30;;;;;;;24.70;14.45;;;;;;;;;;4907438;29;20457;-80
2023/03/10 02:51:56;;;;;;;28.45;15.00;;;;;;;;;;4910237;29;20439;-80
2023/03/10 02:54:23;;;;;;;23.98;14.13;;;;;;;;;;4901088;29;20427;-80
2023/03/10 02:56:49;;;;;;;24.50;13.93;;;;;;;;;;4901657;29;20928;-81
2023/03/10 02:59:15;;;;;;;23.83;14.07;;;;;;;;;;4891791;29;20958;-81
2023/03/10 03:01:41;;;;;;;25.05;14.57;;;;;;;;;;4917694;29;20792;-80
2023/03/10 03:04:07;;;;;;;22.48;14.13;;;;;;;;;;4912982;29;20493;-81
2023/03/10 03:06:33;;;;;;;26.60;14.20;;;;;;;;;;4930944;29;20917;-82
2023/03/10 03:08:59;;;;;;;23.02;13.50;;;;;;;;;;4914304;29;20436;-81
2023/03/10 03:11:25;;;;;;;23.90;13.77;;;;;;;;;;4931099;29;20963;-81
2023/03/10 03:13:51;;;;;;;23.87;13.93;;;;;;;;;;4916488;29;20424;-81
2023/03/10 03:16:17;;;;;;;25.80;15.27;;;;;;;;;;4915071;29;20434;-81
2023/03/10 03:18:43;;;;;;;22.63;13.15;;;;;;;;;;4930356;29;20530;-80
2023/03/10 03:21:11;;;;;;;23.92;14.02;;;;;;;;;;4917762;29;20502;-82
2023/03/10 03:23:38;;;;;;;29.05;14.68;;;;;;;;;;4913823;29;20606;-82
2023/03/10 03:26:05;;;;;;;26.38;14.88;;;;;;;;;;4932066;29;20443;-82
2023/03/10 03:28:31;;;;;;;23.42;14.25;;;;;;;;;;4930359;29;20820;-83
2023/03/10 03:30:57;;;;;;;26.08;14.80;;;;;;;;;;4927257;29;20431;-82
2023/03/10 03:33:23;;;;;;;24.38;14.80;;;;;;;;;;4916720;29;20462;-83
2023/03/10 03:35:49;;;;;;;25.95;15.23;;;;;;;;;;4930529;29;20430;-83
2023/03/10 03:38:15;;;;;;;27.98;15.75;;;;;;;;;;4915496;29;20853;-82
2023/03/10 03:40:43;;;;;;;25.70;14.30;;;;;;;;;;4933499;29;20754;-83
2023/03/10 03:43:11;;;;;;;25.63;14.77;;;;;;;;;;4928979;29;20900;-83
2023/03/10 03:45:37;;;;;;;25.27;15.10;;;;;;;;;;4913769;29;20959;-80
2023/03/10 03:48:03;;;;;;;26.20;15.25;;;;;;;;;;4916446;29;20432;-82
2023/03/10 03:50:29;;;;;;;28.65;15.77;;;;;;;;;;4915994;29;20433;-83
2023/03/10 03:52:56;;;;;;;27.30;15.48;;;;;;;;;;4933312;29;20480;-82
2023/03/10 03:55:22;;;;;;;27.45;15.23;;;;;;;;;;4931842;29;20433;-82
2023/03/10 03:57:48;;;;;;;29.55;16.15;;;;;;;;;;4931803;29;20820;-81
2023/03/10 04:00:18;;;;;;;27.48;15.40;;;;;;;;;;4913471;29;20433;-81
2023/03/10 04:02:44;;;;;;;27.87;16.23;;;;;;;;;;4933056;29;20423;-81
2023/03/10 04:05:10;;;;;;;33.03;16.80;;;;;;;;;;4912218;29;20515;-82
2023/03/10 04:07:38;;;;;;;33.07;17.47;;;;;;;;;;4919279;29;20498;-82
2023/03/10 04:10:04;;;;;;;34.00;18.33;;;;;;;;;;4931938;29;20473;-82
2023/03/10 04:12:30;;;;;;;37.58;19.25;;;;;;;;;;4884146;29;20440;-81
2023/03/10 04:14:56;;;;;;;39.80;20.03;;;;;;;;;;4932055;29;20447;-82
2023/03/10 04:17:22;;;;;;;40.10;20.40;;;;;;;;;;4915208;29;20428;-82
2023/03/10 04:19:48;;;;;;;43.88;21.88;;;;;;;;;;4929352;29;20436;-81
2023/03/10 04:22:14;;;;;;;44.85;23.17;;;;;;;;;;4933034;29;20418;-82
2023/03/10 04:24:40;;;;;;;45.80;23.25;;;;;;;;;;4909484;29;20444;-81
2023/03/10 04:27:08;;;;;;;44.83;21.73;;;;;;;;;;4918705;29;20924;-80
2023/03/10 04:29:35;;;;;;;45.50;22.55;;;;;;;;;;4916414;29;20420;-81
2023/03/10 04:32:01;;;;;;;50.80;23.57;;;;;;;;;;4912329;29;20488;-80
2023/03/10 04:34:27;;;;;;;49.80;23.67;;;;;;;;;;4909511;29;20431;-80
2023/03/10 04:36:54;;;;;;;47.97;23.63;;;;;;;;;;4917716;29;20459;-80
2023/03/10 04:39:20;;;;;;;54.58;24.17;;;;;;;;;;4933656;29;20440;-80
2023/03/10 04:41:46;;;;;;;49.22;24.85;;;;;;;;;;4933682;29;20427;-79
2023/03/10 04:44:12;;;;;;;48.25;24.05;;;;;;;;;;4935408;29;20431;-80
2023/03/10 04:46:38;;;;;;;47.95;23.83;;;;;;;;;;4935031;29;20916;-80
2023/03/10 04:49:04;;;;;;;53.78;24.90;;;;;;;;;;4918839;29;20936;-81
2023/03/10 04:51:30;;;;;;;50.08;23.88;;;;;;;;;;4934405;29;20423;-81
2023/03/10 04:53:56;;;;;;;51.23;24.70;;;;;;;;;;4934081;29;20939;-81
2023/03/10 04:56:23;;;;;;;53.15;24.42;;;;;;;;;;4915918;29;20487;-81
2023/03/10 04:58:50;;;;;;;51.53;24.00;;;;;;;;;;4934940;29;20415;-80
2023/03/10 05:01:16;;;;;;;55.55;25.30;;;;;;;;;;4934836;29;20516;-81
2023/03/10 05:03:42;;;;;;;52.65;25.83;;;;;;;;;;4934079;29;20434;-80
2023/03/10 05:06:15;;;;;;;54.22;26.13;;;;;;;;;;4918567;29;20467;-80
2023/03/10 05:08:42;;;;;;;60.58;26.13;;;;;;;;;;4925284;29;20438;-80
2023/03/10 05:11:08;;;;;;;56.42;25.08;;;;;;;;;;4931069;29;20518;-80
2023/03/10 05:13:34;;;;;;;56.08;25.17;;;;;;;;;;4907748;29;20425;-80
2023/03/10 05:16:00;;;;;;;57.58;25.10;;;;;;;;;;4909072;29;20423;-80
2023/03/10 05:18:26;;;;;;;66.37;26.27;;;;;;;;;;4904221;29;20503;-80
2023/03/10 05:20:53;;;;;;;65.05;27.67;;;;;;;;;;4934400;29;20431;-81
2023/03/10 05:23:19;;;;;;;68.88;27.48;;;;;;;;;;4935822;29;20419;-81
2023/03/10 05:25:45;;;;;;;70.80;28.83;;;;;;;;;;4903068;29;20442;-81
2023/03/10 05:28:11;;;;;;;70.13;28.85;;;;;;;;;;4919606;29;20442;-82
2023/03/10 05:30:37;;;;;;;74.05;29.10;;;;;;;;;;4919330;29;20464;-82
2023/03/10 05:33:03;;;;;;;67.63;28.85;;;;;;;;;;4946322;29;20754;-83
2023/03/10 05:35:29;;;;;;;71.40;30.75;;;;;;;;;;4915886;29;20432;-82
2023/03/10 05:37:55;;;;;;;76.65;30.25;;;;;;;;;;4900842;29;20983;-82
2023/03/10 05:40:22;;;;;;;74.47;29.05;;;;;;;;;;4907842;29;20439;-83
2023/03/10 05:42:48;;;;;;;73.57;29.75;;;;;;;;;;4918266;29;20943;-82
2023/03/10 05:45:15;;;;;;;76.30;28.60;;;;;;;;;;4906168;29;20933;-83
2023/03/10 05:47:41;;;;;;;82.55;29.80;;;;;;;;;;4932525;29;20951;-84
2023/03/10 05:50:08;;;;;;;80.28;30.58;;;;;;;;;;4936028;29;20422;-84
2023/03/10 05:52:41;;;;;;;84.03;29.98;;;;;;;;;;4920518;29;20816;-83
2023/03/10 05:55:08;;;;;;;95.13;33.50;;;;;;;;;;4936257;29;20717;-83
2023/03/10 05:57:34;;;;;;;102.63;34.00;;;;;;;;;;4919149;29;20804;-83
2023/03/10 06:00:00;;;;;;;95.65;32.83;;;;;;;;;;4933472;29;20439;-83
2023/03/10 06:02:27;;;;;;;94.23;33.23;;;;;;;;;;4916233;29;20426;-84
2023/03/10 06:04:53;;;;;;;102.78;35.35;;;;;;;;;;4936052;29;20419;-84
2023/03/10 06:07:19;;;;;;;97.47;33.97;;;;;;;;;;4935245;29;20491;-83
2023/03/10 06:09:45;;;;;;;102.05;35.05;;;;;;;;;;4904020;29;20435;-85
2023/03/10 06:12:11;;;;;;;113.88;35.38;;;;;;;;;;4926365;29;20443;-83
2023/03/10 06:14:38;;;;;;;158.23;39.92;;;;;;;;;;4921241;29;20432;-84
2023/03/10 06:17:04;;;;;;;112.63;38.05;;;;;;;;;;4921034;29;20502;-85
2023/03/10 06:19:30;;;;;;;99.78;35.50;;;;;;;;;;4917477;29;20424;-85
2023/03/10 06:21:56;;;;;;;120.70;36.05;;;;;;;;;;4920500;29;20450;-85
2023/03/10 06:24:22;;;;;;;95.68;34.85;;;;;;;;;;4919870;29;20427;-84
2023/03/10 06:26:49;;;;;;;100.85;34.50;;;;;;;;;;4920166;29;20427;-85
2023/03/10 06:29:15;;;;;;;98.78;35.03;;;;;;;;;;4920126;29;20502;-85
2023/03/10 06:31:41;;;;;;;148.30;38.20;;;;;;;;;;4916136;29;20441;-87
2023/03/10 06:34:07;;;;;;;101.90;34.30;;;;;;;;;;4936176;29;20946;-85
2023/03/10 06:36:33;;;;;;;89.80;32.45;;;;;;;;;;4920406;29;20459;-85
2023/03/10 06:38:59;;;;;;;109.57;33.03;;;;;;;;;;4935766;29;20489;-86
2023/03/10 06:41:26;;;;;;;102.55;31.88;;;;;;;;;;4919156;29;20442;-86
2023/03/10 06:43:53;;;;;;;126.03;34.17;;;;;;;;;;4908209;29;20425;-85
2023/03/10 06:46:19;;;;;;;78.70;29.85;;;;;;;;;;4913682;29;20411;-85
2023/03/10 06:48:45;;;;;;;74.43;29.83;;;;;;;;;;4917582;29;21360;-86
2023/03/10 06:51:16;;;;;;;64.90;28.45;;;;;;;;;;4919128;29;20447;-86
2023/03/10 06:53:51;;;;;;;61.38;26.67;;;;;;;;;;4907574;29;21707;-86
2023/03/10 06:56:19;;;;;;;63.75;26.73;;;;;;;;;;4915341;29;20837;-89
2023/03/10 06:58:45;;;;;;;58.93;26.27;;;;;;;;;;4917149;29;20494;-87
2023/03/10 07:01:25;;;;;;;55.65;24.20;;;;;;;;;;4915252;29;20955;-88
2023/03/10 07:03:52;;;;;;;53.92;24.77;;;;;;;;;;4912753;29;20506;-88
2023/03/10 07:06:18;;;;;;;53.90;24.02;;;;;;;;;;4918955;29;20454;-87
2023/03/10 07:08:44;;;;;;;49.53;23.65;;;;;;;;;;4914609;29;20433;-88
2023/03/10 07:11:10;;;;;;;102.90;25.20;;;;;;;;;;4925226;29;20432;-89
2023/03/10 07:13:37;;;;;;;45.85;22.00;;;;;;;;;;4898618;29;20429;-88
2023/03/10 07:16:03;;;;;;;48.00;21.77;;;;;;;;;;4922804;29;20427;-88
2023/03/10 07:18:30;;;;;;;44.28;21.55;;;;;;;;;;4917816;29;20457;-85
2023/03/10 07:20:57;;;;;;;44.25;20.63;;;;;;;;;;4918500;29;20411;-89
2023/03/10 07:23:23;;;;;;;40.65;20.30;;;;;;;;;;4916869;29;20431;-86
2023/03/10 07:25:53;;;;;;;39.72;19.88;;;;;;;;;;4915843;29;20447;-87
2023/03/10 07:28:19;;;;;;;40.92;20.23;;;;;;;;;;4917412;29;20467;-87
2023/03/10 07:30:45;;;;;;;40.50;20.63;;;;;;;;;;4917754;29;20438;-87
2023/03/10 07:33:11;;;;;;;39.40;20.27;;;;;;;;;;4900510;29;20474;-87
2023/03/10 07:35:37;;;;;;;43.08;21.02;;;;;;;;;;4898153;29;20429;-86
2023/03/10 07:38:04;;;;;;;40.40;21.25;;;;;;;;;;4896912;29;20431;-86
2023/03/10 07:40:30;;;;;;;43.38;23.02;;;;;;;;;;4901773;29;20470;-86
2023/03/10 07:42:56;;;;;;;44.25;20.90;;;;;;;;;;4930929;29;20486;-85
2023/03/10 07:45:23;;;;;;;40.97;20.55;;;;;;;;;;4911515;29;20432;-87
2023/03/10 07:47:53;;;;;;;42.65;23.23;;;;;;;;;;4902900;29;20440;-86
2023/03/10 07:50:19;;;;;;;43.50;22.15;;;;;;;;;;4897657;29;20433;-86
2023/03/10 07:52:45;;;;;;;39.65;21.15;;;;;;;;;;4916507;29;20904;-87
2023/03/10 07:55:12;;;;;;;42.95;21.65;;;;;;;;;;4896347;29;20498;-84
2023/03/10 07:57:38;;;;;;;43.08;20.75;;;;;;;;;;4923775;29;20836;-83
2023/03/10 08:00:05;;;;;;;56.38;21.80;;;;;;;;;;4902364;29;20812;-81
2023/03/10 08:02:31;;;;;;;41.10;20.73;;;;;;;;;;4927086;29;20485;-82
2023/03/10 08:04:57;;;;;;;41.17;20.50;;;;;;;;;;4914815;29;20427;-81
2023/03/10 08:07:26;;;;;;;39.92;20.23;;;;;;;;;;4930791;29;20487;-81
2023/03/10 08:09:55;;;;;;;37.20;21.50;;;;;;;;;;4921486;29;20445;-83
2023/03/10 08:12:21;;;;;;;37.08;20.65;;;;;;;;;;4916549;29;20782;-84
2023/03/10 08:14:49;;;;;;;41.53;20.90;;;;;;;;;;4921366;29;20576;-85
2023/03/10 08:17:15;;;;;;;38.87;20.70;;;;;;;;;;4934086;29;20481;-84
2023/03/10 08:19:41;;;;;;;39.20;20.50;;;;;;;;;;4923450;29;20433;-83
2023/03/10 08:22:09;;;;;;;40.95;20.73;;;;;;;;;;4903540;29;20432;-83
2023/03/10 08:24:36;;;;;;;36.85;19.75;;;;;;;;;;4911625;29;20452;-84
2023/03/10 08:27:02;;;;;;;40.65;21.00;;;;;;;;;;4926758;29;20427;-83
2023/03/10 08:29:28;;;;;;;37.00;19.85;;;;;;;;;;4925014;29;20423;-82
2023/03/10 08:31:54;;;;;;;39.33;21.10;;;;;;;;;;4898938;29;20777;-83
2023/03/10 08:34:20;;;;;;;37.85;20.65;;;;;;;;;;4910680;29;20427;-84
2023/03/10 08:36:46;;;;;;;39.37;20.97;;;;;;;;;;4917785;29;20438;-83
2023/03/10 08:39:13;;;;;;;41.35;20.92;;;;;;;;;;4912616;29;20427;-83
2023/03/10 08:41:45;;;;;;;43.10;21.67;;;;;;;;;;4919033;29;20434;-82
2023/03/10 08:44:14;;;;;;;44.27;21.80;;;;;;;;;;4934213;29;20823;-82
2023/03/10 08:46:40;;;;;;;40.78;20.80;;;;;;;;;;4933293;29;20505;-82
2023/03/10 08:49:07;;;;;;;43.60;22.30;;;;;;;;;;4915716;29;20576;-81
2023/03/10 08:51:41;;;;;;;42.60;22.60;;;;;;;;;;4919058;29;20438;-82
2023/03/10 08:54:14;;;;;;;42.33;22.17;;;;;;;;;;4894950;29;20897;-81
2023/03/10 08:56:48;;;;;;;41.57;22.27;;;;;;;;;;4880263;29;20435;-81
2023/03/10 08:59:29;;;;;;;43.13;23.60;;;;;;;;;;4882277;29;20917;-81
2023/03/10 09:01:55;;;;;;;110.60;27.47;;;;;;;;;;4877529;29;20429;-81
2023/03/10 09:04:24;;;;;;;42.58;23.13;;;;;;;;;;4898073;29;20448;-81
2023/03/10 09:06:51;;;;;;;41.33;22.35;;;;;;;;;;4880032;29;20580;-81
2023/03/10 09:09:17;;;;;;;41.92;22.63;;;;;;;;;;4914350;29;20496;-81
2023/03/10 09:11:43;;;;;;;43.00;22.93;;;;;;;;;;4881314;29;20774;-81
2023/03/10 09:14:10;;;;;;;44.05;22.65;;;;;;;;;;4894694;29;20437;-82
2023/03/10 09:16:48;;;;;;;43.47;22.60;;;;;;;;;;4897494;29;20441;-80
2023/03/10 09:19:20;;;;;;;42.08;22.63;;;;;;;;;;4908079;29;20432;-80
2023/03/10 09:21:49;;;;;;;45.80;24.00;;;;;;;;;;4886025;29;20423;-79
2023/03/10 09:24:16;;;;;;;43.15;22.33;;;;;;;;;;4921609;28;20493;-80
2023/03/10 09:27:08;;;;;;;42.47;23.30;;;;;;;;;;4930240;29;20460;-80
2023/03/10 09:29:45;;;;;;;44.00;22.48;;;;;;;;;;4927755;29;20448;-80
2023/03/10 09:32:39;;;;;;;45.65;23.10;;;;;;;;;;4951660;28;20510;-80
2023/03/10 09:35:06;;;;;;;44.15;23.80;;;;;;;;;;4937285;28;20420;-80
2023/03/10 09:38:10;;;;;;;47.67;24.92;;;;;;;;;;4969759;28;20432;-80
2023/03/10 09:40:39;;;;;;;44.47;23.88;;;;;;;;;;4842077;29;20515;-80
2023/03/10 09:43:06;;;;;;;45.25;23.95;;;;;;;;;;4949693;28;20948;-81
2023/03/10 09:45:35;;;;;;;42.78;23.15;;;;;;;;;;4948105;28;21068;-80
2023/03/10 09:48:06;;;;;;;45.45;23.95;;;;;;;;;;4939674;28;20423;-81
2023/03/10 09:50:46;;;;;;;39.85;20.92;;;;;;;;;;4921015;28;20428;-83
2023/03/10 09:53:12;;;;;;;41.55;22.42;;;;;;;;;;4936828;28;20483;-83
2023/03/10 09:55:40;;;;;;;41.85;23.20;;;;;;;;;;4943905;28;20539;-82
2023/03/10 09:58:11;;;;;;;43.22;22.65;;;;;;;;;;4934135;29;20788;-84
2023/03/10 10:00:39;;;;;;;40.92;21.98;;;;;;;;;;4931177;29;20435;-82
2023/03/10 10:03:12;;;;;;;42.05;21.77;;;;;;;;;;4933276;29;20755;-84
2023/03/10 10:05:41;;;;;;;42.70;21.53;;;;;;;;;;4933349;29;20783;-84
2023/03/10 10:08:27;;;;;;;42.15;22.17;;;;;;;;;;4933718;29;20439;-82
2023/03/10 10:10:55;;;;;;;42.75;21.67;;;;;;;;;;4920860;29;20480;-83
2023/03/10 10:13:23;;;;;;;42.23;22.10;;;;;;;;;;4917978;29;21092;-83
2023/03/10 10:15:59;;;;;;;41.92;22.08;;;;;;;;;;4916362;29;20433;-81
2023/03/10 10:18:28;;;;;;;40.08;21.08;;;;;;;;;;4931429;29;20434;-80
2023/03/10 10:21:09;;;;;;;43.63;23.42;;;;;;;;;;4923189;29;20480;-82
2023/03/10 10:23:41;;;;;;;42.65;21.67;;;;;;;;;;4913070;29;20525;-82
2023/03/10 10:26:12;;;;;;;41.63;22.33;;;;;;;;;;4923247;29;20423;-83
2023/03/10 10:28:38;;;;;;;43.58;22.10;;;;;;;;;;4949650;29;20441;-82
2023/03/10 10:31:18;;;;;;;43.65;21.77;;;;;;;;;;4920976;29;20940;-82
2023/03/10 10:33:57;;;;;;;39.30;20.65;;;;;;;;;;4930433;29;20499;-82
2023/03/10 10:36:24;;;;;;;37.78;20.92;;;;;;;;;;4937336;29;20468;-82
2023/03/10 10:38:52;;;;;;;39.10;21.65;;;;;;;;;;4929599;29;20459;-81
2023/03/10 10:41:20;;;;;;;43.25;22.27;;;;;;;;;;4929690;29;20492;-82
2023/03/10 10:43:47;;;;;;;42.25;22.60;;;;;;;;;;4933452;29;20463;-81
2023/03/10 10:46:15;;;;;;;41.08;20.25;;;;;;;;;;4940172;29;20947;-81
2023/03/10 10:48:45;;;;;;;39.00;20.50;;;;;;;;;;4930591;29;20523;-80
2023/03/10 10:51:23;;;;;;;38.60;20.57;;;;;;;;;;4927126;29;20523;-80
2023/03/10 10:53:49;;;;;;;41.28;20.40;;;;;;;;;;4929008;29;20451;-80
2023/03/10 10:56:17;;;;;;;37.47;20.60;;;;;;;;;;4946595;29;20934;-80
2023/03/10 10:58:44;;;;;;;36.47;19.27;;;;;;;;;;4930664;29;20527;-80
2023/03/10 11:01:11;;;;;;;31.77;17.73;;;;;;;;;;4932783;29;20431;-79
2023/03/10 11:03:39;;;;;;;36.00;19.80;;;;;;;;;;4927234;29;20954;-78
2023/03/10 11:06:28;;;;;;;41.22;19.95;;;;;;;;;;4929045;29;20514;-79
2023/03/10 11:09:11;;;;;;;34.58;18.50;;;;;;;;;;4922973;29;20439;-79
2023/03/10 11:11:55;;;;;;;34.88;18.63;;;;;;;;;;4930935;29;20423;-79
2023/03/10 11:14:28;;;;;;;35.17;18.88;;;;;;;;;;4929436;29;20459;-78
2023/03/10 11:17:07;;;;;;;35.97;18.77;;;;;;;;;;4923274;29;20438;-79
2023/03/10 11:20:00;;;;;;;38.92;20.98;;;1.90;99.90;;;;;;4928271;29;20482;-78
2023/03/10 11:22:26;;;;;;;35.33;18.80;;;;;;;;;;4916962;29;20954;-79
2023/03/10 11:25:18;;;;;;;36.17;20.23;;;;;;;;;;4912207;29;20431;-80
2023/03/10 11:27:44;;;;;;;35.65;19.20;;;;;;;;;;4922380;29;20447;-78
2023/03/10 11:30:13;;;;;;;36.00;18.95;;;;;;;;;;4944859;29;20427;-79
2023/03/10 11:32:43;;;;;;;35.72;19.33;;;;;;;;;;4927854;29;20439;-79
2023/03/10 11:35:31;;;;;;;39.63;21.58;;;;;;;;;;4911819;29;20989;-79
2023/03/10 11:38:05;;;;;;;38.93;21.60;;;;;;;;;;4928718;29;20901;-78
2023/03/10 11:40:41;;;;;;;39.47;20.77;;;;;;;;;;4916626;29;20423;-77
2023/03/10 11:43:14;;;;;;;38.58;20.77;;;;;;;;;;4928231;29;20786;-78
2023/03/10 11:45:52;;;;;;;36.75;19.48;;;;;;;;;;4927725;29;20983;-79
2023/03/10 11:48:24;;;;;;;40.75;21.13;;;;;;;;;;4932094;29;20439;-79
2023/03/10 11:50:52;;;;;;;39.50;21.45;;;;;;;;;;4931604;29;20514;-79
2023/03/10 11:53:28;;;;;;;37.75;20.08;;;;;;;;;;4932193;29;20543;-79
2023/03/10 11:55:54;;;;;;;38.10;19.95;;;;;;;;;;4917958;29;20502;-78
2023/03/10 11:58:23;;;;;;;38.35;20.27;;;;;;;;;;4929882;29;20439;-79
2023/03/10 12:00:51;;;;;;;37.45;19.83;;;;;;;;;;4932463;29;20964;-79
2023/03/10 12:03:44;;;;;;;40.20;21.90;;;;;;;;;;4930371;29;20437;-80
2023/03/10 12:06:12;;;;;;;39.80;20.38;;;;;;;;;;4925998;29;20432;-78
2023/03/10 12:08:39;;;;;;;41.97;21.13;;;;;;;;;;4930530;29;20439;-78
2023/03/10 12:11:09;;;;;;;40.42;21.02;;;;;;;;;;4928776;29;20474;-78
2023/03/10 12:14:02;;;;;;;37.03;20.25;;;;;;;;;;4912314;29;20451;-79
2023/03/10 12:16:30;;;;;;;43.00;22.02;;;;;;;;;;4927738;29;20483;-79
2023/03/10 12:18:56;;;;;;;42.27;21.67;;;;;;;;;;4926429;29;20444;-77
2023/03/10 12:21:32;;;;;;;39.80;21.52;;;;;;;;;;4925562;29;20439;-78
2023/03/10 12:24:00;;;;;;;38.75;20.70;;;;;;;;;;4922321;29;20567;-77
2023/03/10 12:26:38;;;;;;;38.15;20.77;;;;;;;;;;4905422;29;20443;-76
2023/03/10 12:29:20;;;;;;;38.28;21.08;;;;;;;;;;4925456;29;20439;-77
2023/03/10 12:31:47;;;;;;;37.75;20.77;;;;;;;;;;4943371;28;20427;-76
2023/03/10 12:34:13;;;;;;;37.10;20.15;;;;;;;;;;4928359;29;20423;-76
2023/03/10 12:36:41;;;;;;;40.35;20.38;;;;;;;;;;4906574;29;20422;-77
2023/03/10 12:39:26;;;;;;;40.20;20.70;;;;;;;;;;4910843;29;20553;-77
2023/03/10 12:41:55;;;;;;;37.33;20.00;;;;;;;;;;4924338;29;20462;-77
2023/03/10 12:44:21;;;;;;;37.22;20.73;;;;;;;;;;4927240;29;20438;-77
2023/03/10 12:46:58;;;;;;;37.15;20.05;;;;;;;;;;4930742;29;20431;-77
2023/03/10 12:49:32;;;;;;;37.88;20.30;;;;;;;;;;4913819;29;20431;-76
2023/03/10 12:52:17;;;;;;;34.60;18.93;;;;;;;;;;4912634;29;20448;-77
2023/03/10 12:54:47;;;;;;;36.83;19.73;;;;;;;;;;4924045;29;20510;-78
2023/03/10 12:57:26;;;;;;;34.45;18.70;;;;;;;;;;4930441;29;20427;-78
2023/03/10 12:59:57;;;;;;;32.88;17.80;;;;;;;;;;4930920;29;20660;-77
2023/03/10 13:02:24;;;;;;;36.47;19.65;;;;;;;;;;4933672;29;20457;-77
2023/03/10 13:04:50;;;;;;;36.30;19.20;;;;;;;;;;4928920;29;20437;-77
2023/03/10 13:07:17;;;;;;;36.67;19.33;;;;;;;;;;4932192;29;20439;-77
2023/03/10 13:09:46;;;;;;;35.00;19.75;;;;;;;;;;4908294;29;20433;-77
2023/03/10 13:12:20;;;;;;;35.35;20.17;;;;;;;;;;4929062;29;20430;-77
2023/03/10 13:14:50;;;;;;;39.35;20.80;;;;;;;;;;4933401;29;20436;-76
2023/03/10 13:17:27;;;;;;;34.58;19.75;;;;;;;;;;4918279;29;20944;-78
2023/03/10 13:20:08;;;;;;;33.45;19.30;;;;;;;;;;4917792;29;21088;-78
2023/03/10 13:22:34;;;;;;;35.47;20.08;;;;;;;;;;4932367;29;20831;-77
2023/03/10 13:25:03;;;;;;;34.50;19.52;;;;;;;;;;4917773;29;20470;-77
2023/03/10 13:27:30;;;;;;;36.50;20.42;;;;;;;;;;4935363;29;20420;-77
2023/03/10 13:30:02;;;;;;;35.30;20.67;;;;;;;;;;4933020;29;20482;-77
2023/03/10 13:32:29;;;;;;;37.75;21.50;;;;;;;;;;4934369;29;20422;-77
2023/03/10 13:34:56;;;;;;;41.20;21.33;;;;;;;;;;4933152;29;20451;-77
2023/03/10 13:37:23;;;;;;;36.90;21.40;;;;;;;;;;4918627;29;20522;-77
2023/03/10 13:39:49;;;;;;;39.03;22.23;;;;;;;;;;4930376;29;20470;-77
2023/03/10 13:42:20;;;;;;;36.65;20.83;;;;;;;;;;4900515;29;20508;-76
2023/03/10 13:44:46;;;;;;;39.25;21.15;;;;;;;;;;4917870;29;20414;-76
2023/03/10 13:47:15;;;;;;;37.80;21.65;;;;;;;;;;4918213;29;20503;-77
2023/03/10 13:49:43;;;;;;;37.88;21.17;;;;;;;;;;4934425;29;20426;-76
2023/03/10 13:52:12;;;;;;;38.85;21.38;;;;;;;;;;4932578;29;20435;-76
2023/03/10 13:54:39;;;;;;;38.78;21.65;;;;;;;;;;4933398;29;20427;-76
2023/03/10 13:57:08;;;;;;;38.40;22.10;;;;;;;;;;4931167;29;20531;-76
2023/03/10 13:59:36;;;;;;;42.00;23.73;;;;;;;;;;4926387;29;20446;-75
2023/03/10 14:02:02;;;;;;;47.35;24.77;;;;;;;;;;4931417;29;20454;-76
2023/03/10 14:05:05;;;;;;;50.58;26.05;;;;;;;;;;4930169;29;20440;-74
2023/03/10 14:07:35;;;;;;;49.25;26.17;;;;;;;;;;4913730;29;20431;-73
2023/03/10 14:10:04;;;;;;;51.40;27.37;;;;;;;;;;4929335;29;20432;-73
2023/03/10 14:12:37;;;;;;;53.20;28.45;;;;;;;;;;4928576;29;20415;-74
2023/03/10 14:15:09;;;;;;;53.63;28.48;;;;;;;;;;4931654;29;20510;-74
2023/03/10 14:17:37;;;;;;;55.30;29.58;;;;;;;;;;4931228;29;20436;-74
2023/03/10 14:20:04;;;;;;;57.70;30.60;;;;;;;;;;4928190;29;20463;-74
2023/03/10 14:22:36;;;;;;;58.00;30.77;;;;;;;;;;4933037;29;20784;-73
2023/03/10 14:25:06;;;;;;;60.53;32.00;;;;;;;;;;4914675;29;20433;-74
2023/03/10 14:27:34;;;;;;;56.67;30.98;;;;;;;;;;4931351;29;20443;-74